Abington, CT (06230)

6:41 AM EDT on September 05, 2015 (GMT -0400)
Pomfret School | | Change Station
CLOSE
Current Station
Personal Weather Station
Location: Pomfret, CT
Elevation: 577 ft
Nearby Weather Stations

Elev 577 ft 41.89 °N, 71.97 °W | Updated 4 seconds ago

Partly Cloudy
Partly Cloudy
52.2 °F
Feels Like 52.2 °F
N
0.0
Wind Variable Wind from NE
Gusts 0.0 mph

Today
High -- | Low -- °F
--% Chance of Precip.
Yesterday
High -- | Low -- °F
Precip. -- in
6:17 AM 7:15 PM
Waning Gibbous, 50% visible
Pressure 30.29 in
Visibility 10.0 miles
Clouds Scattered Clouds 300 ft
Dew Point 50 °F
Humidity 94%
Rainfall 0.00 in
Snow Depth Not available.
UV 0 out of 12
Pollen 8.70 out of 12
Air Quality Not available.
Flu Activity Not available.
SPECI KIJD 051028Z AUTO 34004KT 10SM SCT003 12/11 A3029 RMK AO2 T01220106
Pressure 30.29 in
Visibility 10.0 miles
Clouds Scattered Clouds 300 ft
Dew Point 50 °F
Humidity 94%
Rainfall 0.00 in
Snow Depth Not available.
UV 0 out of 12
Pollen 8.70 out of 12
Air Quality Not available.
Flu Activity Not available.
SPECI KIJD 051028Z AUTO 34004KT 10SM SCT003 12/11 A3029 RMK AO2 T01220106

10-Day Weather Forecast

×

Almanac

Astronomy

Sep. 05, 2015 Rise Set
Actual Time
Civil Twilight
Nautical Twilight
Astronomical Twilight
Moon
Length of Visible Light
Length of Day
Tomorrow will be .
, % of the Moon is Illuminated

Today's Extremes

State Highs State Lows

Community

WunderPhotos

Upload Photos

1,852,439 photos uploaded!

WunderBlogs® & News

Nearby

Air Quality

  Air Quality AQ Index Pollutant
Not available.

Snow Depth

Station Depth Elevation

Earthquake Activity

City Distance Mag. Time & Date
Minimum magnitude displayed is 2.5.

Coastal Water Temperatures

Place Temperature

Stations

Nearby Weather Stations

Station Location Temp. Windchill Dew Point Humidity Wind Precip. Elev Updated Type